PADU

Details ICAO PADU (DUT)
Name UNALASKA
Region USA (Alaska)
Timezone America/Adak (UTC-10.0)
Plans Departing 25
Arriving 25
Stats Elevation 22 ft / 7 m (AMSL)
Location 53.899070° -166.545064°
Runways 1
Magnetic Variation 9.314° E
Sunrise 2017-01-23 19:07:15 UTC / 2017-01-23 09:07:15 Local
Sunset 2017-01-24 03:31:22 UTC / 2017-01-23 17:31:22 Local
Advertisement - Login to hide

Runways

ID Width Length Bearing (true) Bearing (mag) Surface Threshold Offset Overrun Length
12 100 ft / 30 m 3,895 ft / 1,187 m 135.64° 126.33° Asphalt 100 ft / 30 m 0 ft / 0 m
30 100 ft / 30 m 3,895 ft / 1,187 m 315.65° 306.34° Asphalt 101 ft / 31 m 0 ft / 0 m

Map

Weather

Temperature
Clouds and Precipitation
Forecast for 2017-01-23 18:00 UTC. Updated an hour ago
Winds

METAR

PADU 231756Z 20004KT 10SM -RA BKN022 BKN029 OVC035 03/01 A2840

TAF

TAF PADU 231731Z 2318/2418 13011KT P6SM -RA BKN025 OVC035 FM232100 VRB05KT P6SM -RA OVC020 FM241500 33009KT 5SM -SHRASN BR SCT007 OVC015

Frequencies

Recorded 125.80 MHz AWOS 3
Unicom 122.60 MHz CTAF
Warning: Do not use this data for real-world aviation or navigation. No guarantee of current accuracy is given.